createdAt,value
2022-08-11T00:03:08.748Z,1014.186
2022-08-11T00:23:07.583Z,1014.145
2022-08-11T00:43:20.935Z,1014.201
2022-08-11T01:03:08.788Z,1014.115
2022-08-11T01:23:08.866Z,1014.209
2022-08-11T01:43:07.374Z,1014.166
2022-08-11T02:03:08.111Z,1014.186
2022-08-11T02:23:07.862Z,1014.251
2022-08-11T02:43:07.663Z,1014.198
2022-08-11T03:03:08.375Z,1014.148
2022-08-11T03:23:21.097Z,1014.196
2022-08-11T03:43:09.002Z,1014.217
2022-08-11T04:03:08.070Z,1014.211
2022-08-11T04:23:08.059Z,1014.218
2022-08-11T04:43:07.254Z,1014.13
2022-08-11T05:03:08.268Z,1014.24
2022-08-11T05:23:07.199Z,1014.256
2022-08-11T05:43:07.271Z,1014.239
2022-08-11T06:03:08.251Z,1014.304
2022-08-11T06:23:07.220Z,1014.314
2022-08-11T06:43:08.189Z,1014.253
2022-08-11T07:03:09.226Z,1014.294
2022-08-11T07:23:07.231Z,1014.163
2022-08-11T07:43:08.090Z,1014.126
2022-08-11T08:03:09.110Z,1014.177
2022-08-11T08:23:07.934Z,1014.239
2022-08-11T08:43:07.900Z,1014.227
2022-08-11T09:04:12.177Z,1014.095
2022-08-11T09:43:08.097Z,1013.938
2022-08-11T10:03:08.992Z,1013.716
2022-08-11T10:23:07.824Z,1013.558
2022-08-11T10:43:07.791Z,1013.417
2022-08-11T11:03:24.573Z,1013.151
2022-08-11T11:23:07.337Z,1013.09
2022-08-11T11:43:07.488Z,1012.968
2022-08-11T12:03:08.496Z,1012.73
2022-08-11T12:23:07.414Z,1012.549
2022-08-11T12:43:38.523Z,1012.381
2022-08-11T13:03:08.857Z,1012.139
2022-08-11T13:23:07.807Z,1011.933
2022-08-11T13:43:07.970Z,1011.808
2022-08-11T14:03:09.206Z,1011.569
2022-08-11T14:23:08.112Z,1011.503
2022-08-11T14:43:08.196Z,1011.327
2022-08-11T15:03:09.184Z,1011.243
2022-08-11T15:23:08.130Z,1011.119
2022-08-11T15:43:13.485Z,1010.893
2022-08-11T16:03:15.898Z,1010.919
2022-08-11T16:23:07.755Z,1010.631
2022-08-11T16:43:12.314Z,1010.531
2022-08-11T17:03:08.202Z,1010.453
2022-08-11T17:23:13.990Z,1010.45
2022-08-11T17:43:08.310Z,1010.352
2022-08-11T18:03:08.255Z,1010.452
2022-08-11T18:23:07.251Z,1010.487
2022-08-11T18:43:07.401Z,1010.488
2022-08-11T19:03:08.382Z,1010.656
2022-08-11T19:23:07.305Z,1010.926
2022-08-11T19:43:27.047Z,1010.998
2022-08-11T20:03:10.528Z,1010.955
2022-08-11T20:23:07.392Z,1011.003
2022-08-11T20:44:09.898Z,1011.053
2022-08-11T21:03:08.743Z,1011.091
2022-08-11T21:23:07.961Z,1011.056
2022-08-11T21:43:08.277Z,1011.087
2022-08-11T22:03:08.753Z,1011.142
2022-08-11T22:23:09.015Z,1011.202
2022-08-11T22:43:07.765Z,1011.216
2022-08-11T23:03:10.759Z,1011.178
2022-08-11T23:23:08.045Z,1011.146
2022-08-11T23:43:07.951Z,1011.099
